Track Мизонова Надежда

Time Latitude Longitude Accuracy (66% radius in meters) Altitude (meters) Speed (km/hour) Bearing (degrees) Battery (%) GPS flag
08:23:02 60.370982 29.556212 8 81 0.30203846096992 157.9055480957 57 1 delete
08:22:49 60.370991 29.556189 6 97 0 29.009008407593 57 1 delete
08:22:44 60.371000 29.556209 8 99 0 29.009008407593 57 1 delete
08:22:37 60.370994 29.556303 8 83 0 189.20236206055 57 1 delete
08:22:25 60.370941 29.556381 8 59 0 156.36932373047 57 1 delete
08:22:11 60.370966 29.556360 6 69 0 156.36932373047 57 1 delete
08:21:57 60.370962 29.556389 6 58 0 290.65399169922 57 1 delete
08:21:56 60.370963 29.556386 6 57 0 290.65399169922 57 1 delete
08:21:47 60.370994 29.556318 6 60 0 290.65399169922 57 1 delete
08:21:44 60.371019 29.556301 6 69 0 290.65399169922 57 1 delete
08:21:36 60.371035 29.556255 8 86 0 290.65399169922 57 1 delete
08:21:32 60.371043 29.556225 6 100 0 290.65399169922 57 1 delete
08:21:20 60.371059 29.556190 12 107 0 355.95440673828 57 1 delete
08:21:06 60.371087 29.556198 6 104 0 355.95440673828 57 1 delete
08:20:59 60.371081 29.556224 8 95 0 355.95440673828 57 1 delete
08:20:53 60.371036 29.556270 6 90 0 43.820812225342 57 1 delete
08:20:47 60.370989 29.556271 12 85 0 43.820812225342 57 1 delete
08:20:40 60.370969 29.556270 8 81 0 51.326850891113 57 1 delete
08:20:28 60.370957 29.556225 6 83 0 234.50706481934 57 1 delete
08:20:15 60.370959 29.556203 6 87 0 234.50706481934 57 1 delete
08:20:03 60.371000 29.556256 6 81 0 175.43103027344 57 1 delete
08:19:50 60.371000 29.556239 6 92 0 175.43103027344 57 1 delete
08:19:48 60.370994 29.556262 6 90 0.33845493197441 175.43103027344 57 1 delete
08:19:38 60.370967 29.556309 6 76 0.35030800104141 214.35652160645 57 1 delete
08:19:32 60.370961 29.556328 6 72 0 154.96333312988 57 1 delete
08:19:25 60.370933 29.556452 6 53 0 154.96333312988 57 1 delete
08:19:13 60.370948 29.556455 6 50 0 154.96333312988 57 1 delete
08:19:10 60.370968 29.556429 8 53 0 154.96333312988 57 1 delete
08:19:00 60.370994 29.556372 6 60 0 154.96333312988 57 1 delete
08:18:57 60.371007 29.556367 6 61 0 154.96333312988 57 1 delete
08:18:48 60.371044 29.556313 6 76 0 154.96333312988 57 1 delete
08:18:47 60.371045 29.556311 6 79 0 154.96333312988 57 1 delete
08:18:36 60.371035 29.556299 4 80 0 154.96333312988 57 1 delete
08:18:24 60.371032 29.556312 6 81 0 154.96333312988 57 1 delete
08:18:11 60.371005 29.556323 4 74 0 154.96333312988 57 1 delete
08:17:58 60.371010 29.556322 4 71 0 154.96333312988 57 1 delete
08:17:46 60.370989 29.556344 6 68 0 154.96333312988 57 1 delete
08:17:33 60.370988 29.556345 6 77 0 154.96333312988 57 1 delete
08:17:20 60.370993 29.556340 6 79 0 154.96333312988 57 1 delete
08:17:07 60.370980 29.556355 6 81 0 154.96333312988 57 1 delete
08:16:54 60.370971 29.556368 6 78 0 154.96333312988 57 1 delete
08:16:41 60.370987 29.556348 4 76 0 154.96333312988 57 1 delete
08:16:28 60.371023 29.556334 6 77 0 154.96333312988 57 1 delete
08:16:15 60.371015 29.556345 4 79 0 137.06118774414 57 1 delete
08:16:03 60.370995 29.556340 6 77 0 137.06118774414 57 1 delete
08:15:51 60.370998 29.556342 6 76 0 137.06118774414 57 1 delete
08:15:47 60.371002 29.556339 4 76 0 137.06118774414 57 1 delete
08:15:38 60.371005 29.556337 4 77 0 137.06118774414 57 1 delete
08:15:26 60.371004 29.556334 6 77 0 137.06118774414 57 1 delete
08:15:14 60.371009 29.556313 4 76 0 137.06118774414 57 1 delete